createdAt,value
2022-09-20T00:00:11.852Z,0.80
2022-09-20T00:02:39.432Z,0.75
2022-09-20T00:05:14.913Z,1.05
2022-09-20T00:07:56.983Z,1.00
2022-09-20T00:10:27.640Z,0.98
2022-09-20T00:12:59.844Z,0.90
2022-09-20T00:15:29.399Z,0.95
2022-09-20T00:17:59.995Z,0.80
2022-09-20T00:20:29.771Z,1.00
2022-09-20T00:23:00.091Z,1.02
2022-09-20T00:25:27.813Z,0.88
2022-09-20T00:27:57.364Z,0.70
2022-09-20T00:30:31.024Z,0.82
2022-09-20T00:33:01.660Z,0.80
2022-09-20T00:35:34.043Z,0.80
2022-09-20T00:38:01.816Z,0.95
2022-09-20T00:40:30.286Z,1.00
2022-09-20T00:43:01.063Z,1.02
2022-09-20T00:45:33.466Z,0.73
2022-09-20T00:48:11.709Z,0.77
2022-09-20T00:50:45.333Z,0.70
2022-09-20T00:53:26.928Z,0.98
2022-09-20T00:56:02.031Z,0.65
2022-09-20T00:58:38.299Z,0.90
2022-09-20T01:01:09.646Z,0.60
2022-09-20T01:03:43.428Z,0.70
2022-09-20T01:06:16.529Z,0.80
2022-09-20T01:08:53.378Z,0.60
2022-09-20T01:11:25.667Z,0.90
2022-09-20T01:13:58.084Z,0.70
2022-09-20T01:16:30.331Z,0.90
2022-09-20T01:19:02.895Z,0.57
2022-09-20T01:21:31.317Z,0.80
2022-09-20T01:24:46.571Z,0.80
2022-09-20T01:27:45.387Z,0.60
2022-09-20T01:30:22.438Z,0.80
2022-09-20T01:33:20.909Z,0.80
2022-09-20T01:35:54.420Z,0.70
2022-09-20T01:38:43.153Z,0.70
2022-09-20T01:41:38.527Z,0.70
2022-09-20T01:44:09.154Z,0.68
2022-09-20T01:46:42.393Z,0.70
2022-09-20T01:49:22.197Z,0.70
2022-09-20T01:52:14.550Z,0.60
2022-09-20T01:54:59.601Z,0.57
2022-09-20T01:57:52.242Z,0.63
2022-09-20T02:00:54.636Z,0.50
2022-09-20T02:03:37.484Z,0.55
2022-09-20T02:06:32.686Z,0.65
2022-09-20T02:09:18.096Z,0.65
2022-09-20T02:12:04.437Z,0.70
2022-09-20T02:14:49.716Z,0.90
2022-09-20T02:17:27.236Z,0.70
2022-09-20T02:20:23.343Z,0.60
2022-09-20T02:23:09.088Z,0.52
2022-09-20T02:26:18.565Z,0.55
2022-09-20T02:29:07.691Z,0.50
2022-09-20T02:31:51.783Z,0.65
2022-09-20T02:34:38.305Z,0.75
2022-09-20T02:37:25.641Z,0.70
2022-09-20T02:40:20.287Z,0.63
2022-09-20T02:43:02.204Z,0.73
2022-09-20T02:45:44.897Z,0.65
2022-09-20T02:48:16.647Z,0.75
2022-09-20T02:51:09.245Z,0.63
2022-09-20T02:54:02.887Z,0.60
2022-09-20T02:56:36.989Z,0.70
2022-09-20T02:59:32.797Z,0.50
2022-09-20T03:02:36.354Z,0.82
2022-09-20T03:05:44.761Z,0.57
2022-09-20T03:08:22.057Z,0.60
2022-09-20T03:11:01.785Z,0.50
2022-09-20T03:14:08.072Z,0.60
2022-09-20T03:17:03.193Z,0.63
2022-09-20T03:20:05.713Z,0.70
2022-09-20T03:23:01.341Z,0.63
2022-09-20T03:25:52.008Z,0.70
2022-09-20T03:28:28.257Z,0.43
2022-09-20T03:31:06.915Z,0.57
2022-09-20T03:34:07.563Z,0.70
2022-09-20T03:36:41.190Z,0.65
2022-09-20T03:39:11.803Z,0.52
2022-09-20T03:41:40.211Z,0.60
2022-09-20T03:44:46.860Z,0.82
2022-09-20T03:47:36.844Z,0.50
2022-09-20T03:50:16.512Z,0.60
2022-09-20T03:53:15.154Z,0.70
2022-09-20T03:56:23.402Z,0.40
2022-09-20T03:59:22.632Z,0.70
2022-09-20T04:02:19.257Z,0.50
2022-09-20T04:05:09.468Z,0.52
2022-09-20T04:08:09.330Z,0.63
2022-09-20T04:11:04.404Z,0.60
2022-09-20T04:13:39.795Z,0.50
2022-09-20T04:16:16.669Z,0.60
2022-09-20T04:19:00.266Z,0.60
2022-09-20T04:21:46.572Z,0.40
2022-09-20T04:24:30.041Z,0.50
2022-09-20T04:27:06.080Z,0.55
2022-09-20T04:30:03.829Z,0.60
2022-09-20T04:32:35.821Z,0.50
2022-09-20T04:35:50.891Z,0.60
2022-09-20T04:38:24.892Z,0.60
2022-09-20T04:41:17.403Z,0.50
2022-09-20T04:44:14.422Z,0.60
2022-09-20T04:47:05.940Z,0.50
2022-09-20T04:50:06.466Z,0.50
2022-09-20T04:53:29.782Z,0.50
2022-09-20T04:56:22.362Z,0.70
2022-09-20T04:59:05.991Z,0.50
2022-09-20T05:04:51.743Z,0.68
2022-09-20T05:07:37.959Z,0.50
2022-09-20T05:10:40.343Z,0.60
2022-09-20T05:13:17.091Z,0.50
2022-09-20T05:16:02.026Z,0.57
2022-09-20T05:18:35.769Z,0.60
2022-09-20T05:21:36.559Z,0.50
2022-09-20T05:24:31.482Z,0.65
2022-09-20T05:27:06.941Z,0.50
2022-09-20T05:29:49.574Z,0.70
2022-09-20T05:32:30.585Z,0.52
2022-09-20T05:35:25.469Z,0.60
2022-09-20T05:38:12.730Z,0.60
2022-09-20T05:41:09.428Z,0.50
2022-09-20T05:44:07.490Z,0.63
2022-09-20T05:46:50.898Z,0.60
2022-09-20T05:49:47.225Z,0.50
2022-09-20T05:52:45.017Z,0.52
2022-09-20T05:55:34.018Z,0.70
2022-09-20T05:58:39.834Z,0.90
2022-09-20T06:01:13.524Z,0.90
2022-09-20T06:03:55.837Z,1.40
2022-09-20T06:06:54.501Z,1.30
2022-09-20T06:09:47.022Z,1.98
2022-09-20T06:12:31.637Z,1.38
2022-09-20T06:15:21.643Z,1.30
2022-09-20T06:18:20.837Z,1.50
2022-09-20T06:20:53.954Z,1.50
2022-09-20T06:23:24.892Z,1.67
2022-09-20T06:26:10.427Z,1.60
2022-09-20T06:29:09.294Z,1.52
2022-09-20T06:31:45.982Z,1.88
2022-09-20T06:34:17.752Z,2.30
2022-09-20T06:37:13.594Z,2.05
2022-09-20T06:40:14.383Z,1.85
2022-09-20T06:42:50.026Z,1.48
2022-09-20T06:45:23.642Z,1.40
2022-09-20T06:47:58.978Z,1.67
2022-09-20T06:50:32.820Z,1.45
2022-09-20T06:53:07.357Z,1.30
2022-09-20T06:55:44.983Z,2.10
2022-09-20T06:58:15.517Z,1.40
2022-09-20T07:00:49.304Z,1.23
2022-09-20T07:06:04.468Z,1.02
2022-09-20T07:08:36.886Z,1.08
2022-09-20T07:11:16.440Z,1.00
2022-09-20T07:13:54.439Z,0.80
2022-09-20T07:16:26.760Z,0.90
2022-09-20T07:19:01.022Z,0.80
2022-09-20T07:21:32.520Z,0.98
2022-09-20T07:24:07.794Z,0.80
2022-09-20T07:26:54.674Z,0.65
2022-09-20T07:29:25.906Z,0.70
2022-09-20T07:32:00.135Z,0.70
2022-09-20T07:34:27.788Z,0.60
2022-09-20T07:37:00.647Z,0.55
2022-09-20T07:39:32.131Z,0.70
2022-09-20T07:42:08.643Z,0.60
2022-09-20T07:47:15.113Z,0.45
2022-09-20T07:49:48.372Z,0.60
2022-09-20T07:57:26.981Z,0.63
2022-09-20T07:59:57.783Z,0.50
2022-09-20T08:02:28.837Z,0.40
2022-09-20T08:05:05.203Z,0.50
2022-09-20T08:07:35.853Z,0.45
2022-09-20T08:10:10.365Z,0.45
2022-09-20T08:15:34.843Z,0.50
2022-09-20T08:18:05.514Z,0.50
2022-09-20T08:20:40.793Z,0.68
2022-09-20T08:23:22.965Z,0.45
2022-09-20T08:25:58.411Z,0.40
2022-09-20T08:28:32.750Z,0.45
2022-09-20T08:31:12.507Z,0.60
2022-09-20T08:33:43.737Z,0.38
2022-09-20T08:36:22.209Z,0.60
2022-09-20T08:42:16.905Z,0.40
2022-09-20T08:44:58.626Z,0.50
2022-09-20T08:47:37.923Z,0.30
2022-09-20T08:50:18.634Z,0.50
2022-09-20T08:52:49.399Z,0.52
2022-09-20T08:55:25.975Z,0.50
2022-09-20T08:58:01.463Z,0.40
2022-09-20T09:00:36.465Z,0.50
2022-09-20T09:03:17.717Z,0.53
2022-09-20T09:05:55.089Z,0.60
2022-09-20T09:08:37.709Z,0.47
2022-09-20T09:11:16.188Z,0.50
2022-09-20T09:14:27.345Z,0.40
2022-09-20T09:16:55.377Z,1.13
2022-09-20T09:19:34.409Z,0.60
2022-09-20T09:22:07.746Z,0.40
2022-09-20T09:24:37.757Z,0.65
2022-09-20T09:27:18.968Z,0.40
2022-09-20T09:29:56.545Z,0.50
2022-09-20T09:32:37.718Z,0.52
2022-09-20T09:35:30.862Z,0.50
2022-09-20T09:38:01.599Z,0.40
2022-09-20T09:40:34.642Z,0.40
2022-09-20T09:43:24.017Z,0.60
2022-09-20T09:45:58.439Z,0.65
2022-09-20T09:48:33.504Z,0.60
2022-09-20T09:51:23.763Z,0.60
2022-09-20T09:53:56.283Z,0.40
2022-09-20T09:56:50.237Z,0.50
2022-09-20T10:02:36.981Z,0.45
2022-09-20T10:05:23.355Z,0.40
2022-09-20T10:08:25.326Z,0.57
2022-09-20T10:11:13.223Z,0.60
2022-09-20T10:14:11.629Z,0.47
2022-09-20T10:17:12.526Z,0.40
2022-09-20T10:20:03.743Z,0.40
2022-09-20T10:23:06.698Z,0.50
2022-09-20T10:25:52.368Z,0.40
2022-09-20T10:28:35.867Z,0.45
2022-09-20T10:31:25.054Z,0.63
2022-09-20T10:34:28.201Z,0.30
2022-09-20T10:37:01.069Z,0.60
2022-09-20T10:39:34.692Z,0.40
2022-09-20T10:42:21.293Z,0.30
2022-09-20T10:48:57.661Z,0.60
2022-09-20T10:51:35.335Z,0.45
2022-09-20T10:54:14.728Z,0.38
2022-09-20T10:56:57.152Z,0.60
2022-09-20T10:59:44.626Z,0.50
2022-09-20T11:02:20.930Z,0.60
2022-09-20T11:05:00.821Z,0.40
2022-09-20T11:07:50.325Z,0.50
2022-09-20T11:10:29.061Z,0.38
2022-09-20T11:13:06.817Z,0.40
2022-09-20T11:15:56.287Z,0.40
2022-09-20T11:18:45.036Z,0.50
2022-09-20T11:21:42.847Z,0.60
2022-09-20T11:24:33.251Z,0.47
2022-09-20T11:27:29.732Z,0.40
2022-09-20T11:30:23.409Z,0.30
2022-09-20T11:33:03.837Z,0.60
2022-09-20T11:35:49.398Z,0.30
2022-09-20T11:38:44.119Z,0.40
2022-09-20T11:41:33.365Z,0.30
2022-09-20T11:44:21.487Z,0.50
2022-09-20T11:46:56.125Z,0.30
2022-09-20T11:49:53.446Z,0.38
2022-09-20T11:52:53.161Z,0.52
2022-09-20T11:55:44.843Z,0.50
2022-09-20T11:58:26.734Z,0.50
2022-09-20T12:01:02.856Z,0.60
2022-09-20T12:03:43.580Z,0.63
2022-09-20T12:06:38.846Z,0.52
2022-09-20T12:09:26.837Z,0.90
2022-09-20T12:12:17.554Z,0.50
2022-09-20T12:14:57.377Z,0.50
2022-09-20T12:17:49.898Z,0.82
2022-09-20T12:20:43.216Z,0.60
2022-09-20T12:23:45.402Z,0.57
2022-09-20T12:26:21.017Z,0.63
2022-09-20T12:29:34.317Z,0.52
2022-09-20T12:32:26.597Z,0.40
2022-09-20T12:34:57.428Z,0.60
2022-09-20T12:37:27.056Z,0.60
2022-09-20T12:40:01.126Z,0.50
2022-09-20T12:42:33.630Z,0.40
2022-09-20T12:45:17.011Z,0.60
2022-09-20T12:47:59.445Z,0.70
2022-09-20T12:50:51.709Z,0.50
2022-09-20T12:53:22.637Z,0.60
2022-09-20T12:56:06.589Z,0.55
2022-09-20T12:58:48.284Z,0.50
2022-09-20T13:01:18.829Z,0.60
2022-09-20T13:04:15.236Z,0.40
2022-09-20T13:06:52.340Z,0.50
2022-09-20T13:09:21.484Z,0.57
2022-09-20T13:12:01.601Z,0.73
2022-09-20T13:14:34.273Z,0.50
2022-09-20T13:17:28.247Z,0.60
2022-09-20T13:20:02.072Z,0.40
2022-09-20T13:22:45.692Z,0.50
2022-09-20T13:25:29.538Z,0.73
2022-09-20T13:28:42.603Z,0.40
2022-09-20T13:31:35.634Z,0.60
2022-09-20T13:34:44.627Z,0.47
2022-09-20T13:37:23.785Z,0.90
2022-09-20T13:40:01.729Z,0.50
2022-09-20T13:42:40.806Z,0.55
2022-09-20T13:45:18.825Z,0.50
2022-09-20T13:47:56.796Z,0.50
2022-09-20T13:50:29.865Z,0.55
2022-09-20T13:53:33.593Z,0.60
2022-09-20T13:56:23.585Z,0.50
2022-09-20T13:59:01.129Z,0.40
2022-09-20T14:01:38.619Z,0.60
2022-09-20T14:04:21.576Z,0.32
2022-09-20T14:06:57.115Z,0.40
2022-09-20T14:09:33.221Z,0.40
2022-09-20T14:12:14.686Z,0.50
2022-09-20T14:14:50.912Z,0.40
2022-09-20T14:17:31.236Z,0.50
2022-09-20T14:20:01.902Z,0.57
2022-09-20T14:22:31.840Z,0.70
2022-09-20T14:25:29.483Z,0.50
2022-09-20T14:28:19.691Z,0.40
2022-09-20T14:30:50.789Z,0.50
2022-09-20T14:33:21.293Z,0.52
2022-09-20T14:35:51.919Z,0.77
2022-09-20T14:38:29.439Z,0.50
2022-09-20T14:40:59.619Z,0.40
2022-09-20T14:43:40.490Z,0.60
2022-09-20T14:46:22.237Z,0.68
2022-09-20T14:48:55.700Z,0.50
2022-09-20T14:51:32.136Z,0.57
2022-09-20T14:54:07.061Z,0.40
2022-09-20T14:56:57.679Z,0.40
2022-09-20T14:59:36.777Z,0.50
2022-09-20T15:02:23.733Z,0.88
2022-09-20T15:05:07.824Z,0.60
2022-09-20T15:07:45.800Z,0.43
2022-09-20T15:10:28.209Z,0.40
2022-09-20T15:13:01.205Z,0.50
2022-09-20T15:15:34.948Z,0.60
2022-09-20T15:18:20.147Z,0.60
2022-09-20T15:20:57.340Z,0.60
2022-09-20T15:23:25.390Z,0.52
2022-09-20T15:25:57.203Z,0.32
2022-09-20T15:28:33.909Z,1.00
2022-09-20T15:31:15.299Z,0.55
2022-09-20T15:33:54.388Z,0.40
2022-09-20T15:36:31.977Z,0.55
2022-09-20T15:39:02.927Z,0.57
2022-09-20T15:41:36.736Z,0.68
2022-09-20T15:44:19.909Z,0.82
2022-09-20T15:46:58.453Z,0.73
2022-09-20T15:49:28.832Z,1.48
2022-09-20T15:52:02.481Z,1.02
2022-09-20T15:54:33.740Z,0.98
2022-09-20T15:57:01.826Z,0.90
2022-09-20T15:59:29.826Z,1.15
2022-09-20T16:02:05.674Z,0.77
2022-09-20T16:04:42.772Z,0.95
2022-09-20T16:07:19.037Z,1.00
2022-09-20T16:09:51.746Z,1.00
2022-09-20T16:12:26.349Z,1.03
2022-09-20T16:14:59.125Z,1.00
2022-09-20T16:17:48.088Z,1.17
2022-09-20T16:20:18.513Z,1.17
2022-09-20T16:22:47.397Z,1.40
2022-09-20T16:25:17.947Z,1.20
2022-09-20T16:27:48.948Z,1.38
2022-09-20T16:30:19.816Z,1.30
2022-09-20T16:32:49.149Z,1.40
2022-09-20T16:35:22.076Z,1.30
2022-09-20T16:37:54.907Z,1.30
2022-09-20T16:40:22.739Z,1.40
2022-09-20T16:42:52.397Z,1.17
2022-09-20T16:45:27.908Z,1.20
2022-09-20T16:48:04.323Z,1.20
2022-09-20T16:50:34.611Z,0.90
2022-09-20T16:53:04.110Z,1.10
2022-09-20T16:55:34.233Z,1.35
2022-09-20T16:58:05.475Z,1.20
2022-09-20T17:00:34.049Z,1.08
2022-09-20T17:03:04.643Z,1.00
2022-09-20T17:05:38.496Z,0.88
2022-09-20T17:08:09.896Z,1.10
2022-09-20T17:10:37.682Z,1.08
2022-09-20T17:13:07.539Z,1.08
2022-09-20T17:15:42.124Z,1.13
2022-09-20T17:20:44.089Z,1.08
2022-09-20T17:23:14.931Z,1.08
2022-09-20T17:25:46.354Z,1.10
2022-09-20T17:28:18.016Z,0.90
2022-09-20T17:30:51.918Z,0.98
2022-09-20T17:33:22.929Z,1.10
2022-09-20T17:35:54.909Z,0.80
2022-09-20T17:38:25.926Z,0.93
2022-09-20T17:41:14.923Z,0.90
2022-09-20T17:43:43.671Z,0.93
2022-09-20T17:46:24.699Z,0.82
2022-09-20T17:49:00.544Z,1.20
2022-09-20T17:51:30.501Z,1.20
2022-09-20T17:53:58.903Z,0.95
2022-09-20T17:56:31.173Z,1.10
2022-09-20T17:59:00.442Z,0.90
2022-09-20T18:01:32.913Z,1.05
2022-09-20T18:04:03.975Z,1.05
2022-09-20T18:06:37.058Z,0.82
2022-09-20T18:09:11.958Z,1.00
2022-09-20T18:11:48.688Z,0.98
2022-09-20T18:14:23.141Z,0.90
2022-09-20T18:16:56.410Z,1.23
2022-09-20T18:19:23.769Z,0.95
2022-09-20T18:21:56.342Z,1.02
2022-09-20T18:24:27.123Z,1.00
2022-09-20T18:26:54.772Z,1.15
2022-09-20T18:29:25.153Z,0.90
2022-09-20T18:31:58.130Z,0.90
2022-09-20T18:34:34.176Z,0.90
2022-09-20T18:37:02.974Z,1.20
2022-09-20T18:39:33.168Z,1.10
2022-09-20T18:42:03.447Z,1.27
2022-09-20T18:44:33.983Z,1.02
2022-09-20T18:47:09.974Z,0.80
2022-09-20T18:49:40.040Z,0.88
2022-09-20T18:52:13.076Z,1.02
2022-09-20T18:54:43.961Z,0.90
2022-09-20T18:57:12.912Z,1.10
2022-09-20T18:59:53.812Z,1.10
2022-09-20T19:02:30.812Z,1.15
2022-09-20T19:05:15.505Z,1.00
2022-09-20T19:07:58.257Z,1.08
2022-09-20T19:10:38.608Z,1.17
2022-09-20T19:13:32.831Z,1.00
2022-09-20T19:16:17.358Z,1.17
2022-09-20T19:19:09.336Z,0.90
2022-09-20T19:21:54.286Z,0.98
2022-09-20T19:24:43.360Z,0.82
2022-09-20T19:27:19.871Z,0.90
2022-09-20T19:29:47.992Z,1.00
2022-09-20T19:32:21.678Z,1.00
2022-09-20T19:35:01.794Z,1.00
2022-09-20T19:37:47.982Z,0.77
2022-09-20T19:41:12.572Z,0.70
2022-09-20T19:44:01.478Z,1.10
2022-09-20T19:47:01.877Z,0.88
2022-09-20T19:50:01.043Z,0.93
2022-09-20T19:52:34.961Z,1.00
2022-09-20T19:55:03.047Z,0.80
2022-09-20T19:57:43.825Z,0.85
2022-09-20T20:00:20.239Z,0.88
2022-09-20T20:02:49.003Z,0.68
2022-09-20T20:05:21.118Z,1.15
2022-09-20T20:08:08.026Z,1.00
2022-09-20T20:11:16.614Z,0.80
2022-09-20T20:14:05.740Z,0.90
2022-09-20T20:16:57.832Z,0.95
2022-09-20T20:19:40.137Z,0.90
2022-09-20T20:22:36.184Z,0.80
2022-09-20T20:25:07.264Z,0.85
2022-09-20T20:27:36.389Z,0.75
2022-09-20T20:30:04.879Z,0.80
2022-09-20T20:32:39.821Z,0.82
2022-09-20T20:35:08.140Z,0.80
2022-09-20T20:37:39.932Z,0.90
2022-09-20T20:40:12.321Z,1.00
2022-09-20T20:42:40.322Z,1.10
2022-09-20T20:45:08.988Z,0.95
2022-09-20T20:47:42.750Z,0.90
2022-09-20T20:50:16.570Z,0.80
2022-09-20T20:52:52.023Z,1.00
2022-09-20T20:55:27.297Z,1.00
2022-09-20T20:57:58.335Z,1.10
2022-09-20T21:00:30.161Z,0.98
2022-09-20T21:03:03.754Z,0.70
2022-09-20T21:05:39.730Z,0.88
2022-09-20T21:08:11.498Z,0.98
2022-09-20T21:10:41.528Z,0.80
2022-09-20T21:13:09.150Z,0.82
2022-09-20T21:15:36.712Z,1.05
2022-09-20T21:18:06.794Z,0.90
2022-09-20T21:20:38.050Z,0.88
2022-09-20T21:23:06.798Z,1.00
2022-09-20T21:25:40.159Z,0.98
2022-09-20T21:28:11.217Z,0.80
2022-09-20T21:30:47.687Z,1.02
2022-09-20T21:35:43.603Z,0.98
2022-09-20T21:38:14.177Z,0.80
2022-09-20T21:40:42.079Z,0.63
2022-09-20T21:43:09.752Z,1.00
2022-09-20T21:45:40.329Z,0.70
2022-09-20T21:48:11.481Z,1.20
2022-09-20T21:50:39.426Z,0.95
2022-09-20T21:53:06.952Z,0.60
2022-09-20T21:55:36.591Z,0.80
2022-09-20T21:58:06.362Z,0.77
2022-09-20T22:00:36.607Z,0.88
2022-09-20T22:03:04.040Z,0.73
2022-09-20T22:05:34.461Z,0.90
2022-09-20T22:08:02.401Z,0.73
2022-09-20T22:10:33.866Z,0.88
2022-09-20T22:13:04.717Z,0.73
2022-09-20T22:15:35.362Z,0.77
2022-09-20T22:18:05.135Z,0.93
2022-09-20T22:20:35.332Z,0.75
2022-09-20T22:23:08.922Z,0.80
2022-09-20T22:25:39.218Z,1.05
2022-09-20T22:28:06.620Z,1.00
2022-09-20T22:30:39.824Z,1.05
2022-09-20T22:33:10.305Z,0.90
2022-09-20T22:35:44.643Z,0.82
2022-09-20T22:38:12.097Z,0.95
2022-09-20T22:40:39.468Z,0.90
2022-09-20T22:43:10.132Z,0.93
2022-09-20T22:45:38.263Z,0.90
2022-09-20T22:48:06.260Z,0.80
2022-09-20T22:50:39.417Z,0.95
2022-09-20T22:53:08.106Z,1.05
2022-09-20T22:55:38.521Z,1.42
2022-09-20T22:58:11.458Z,0.95
2022-09-20T23:00:39.575Z,1.13
2022-09-20T23:03:10.024Z,0.60
2022-09-20T23:05:40.148Z,0.90
2022-09-20T23:08:07.698Z,0.80
2022-09-20T23:10:35.372Z,1.00
2022-09-20T23:13:02.909Z,0.98
2022-09-20T23:15:39.071Z,0.80
2022-09-20T23:18:09.408Z,1.05
2022-09-20T23:20:39.375Z,1.00
2022-09-20T23:23:09.393Z,1.17
2022-09-20T23:25:37.190Z,1.10
2022-09-20T23:28:06.800Z,1.00
2022-09-20T23:30:36.972Z,1.02
2022-09-20T23:33:06.947Z,0.95
2022-09-20T23:35:42.052Z,1.10
2022-09-20T23:38:12.364Z,0.90
2022-09-20T23:40:39.999Z,0.80
2022-09-20T23:43:14.424Z,1.00
2022-09-20T23:45:43.512Z,0.77
2022-09-20T23:48:13.979Z,1.30
2022-09-20T23:50:43.167Z,1.10
2022-09-20T23:53:10.862Z,0.90
2022-09-20T23:55:44.431Z,0.95
2022-09-20T23:58:18.270Z,0.80
